sensor_id;sensor_type;location;lat;lon;timestamp;pressure;altitude;pressure_sealevel;temperature;humidity
45369;BME280;51342;55.250;37.668;2023-10-31T00:01:52;98940.31;;;6.21;93.38
45369;BME280;51342;55.250;37.668;2023-10-31T00:04:26;98942.50;;;6.15;92.58
45369;BME280;51342;55.250;37.668;2023-10-31T00:06:57;98948.06;;;6.08;92.86
45369;BME280;51342;55.250;37.668;2023-10-31T00:09:29;98963.84;;;6.01;92.73
45369;BME280;51342;55.250;37.668;2023-10-31T00:12:00;98956.47;;;5.92;92.77
45369;BME280;51342;55.250;37.668;2023-10-31T00:14:32;98957.91;;;5.89;92.12
45369;BME280;51342;55.250;37.668;2023-10-31T00:17:03;98954.06;;;5.82;92.41
45369;BME280;51342;55.250;37.668;2023-10-31T00:19:34;98958.59;;;5.73;92.12
45369;BME280;51342;55.250;37.668;2023-10-31T00:22:06;98956.75;;;5.70;91.70
45369;BME280;51342;55.250;37.668;2023-10-31T00:24:37;98947.78;;;5.64;91.79
45369;BME280;51342;55.250;37.668;2023-10-31T00:27:09;98952.44;;;5.56;91.67
45369;BME280;51342;55.250;37.668;2023-10-31T00:29:41;98956.16;;;5.48;91.74
45369;BME280;51342;55.250;37.668;2023-10-31T00:32:12;98958.53;;;5.45;91.38
45369;BME280;51342;55.250;37.668;2023-10-31T00:34:44;98963.16;;;5.37;91.28
45369;BME280;51342;55.250;37.668;2023-10-31T00:37:15;98975.66;;;5.32;91.53
45369;BME280;51342;55.250;37.668;2023-10-31T00:39:47;98962.44;;;5.26;91.35
45369;BME280;51342;55.250;37.668;2023-10-31T00:42:18;98963.63;;;5.18;91.20
45369;BME280;51342;55.250;37.668;2023-10-31T00:44:50;98967.47;;;5.12;90.86
45369;BME280;51342;55.250;37.668;2023-10-31T00:47:21;98975.41;;;5.03;90.94
45369;BME280;51342;55.250;37.668;2023-10-31T00:49:54;98969.88;;;4.97;91.25
45369;BME280;51342;55.250;37.668;2023-10-31T00:52:26;98972.72;;;4.88;90.58
45369;BME280;51342;55.250;37.668;2023-10-31T00:54:57;98970.50;;;4.81;90.51
45369;BME280;51342;55.250;37.668;2023-10-31T00:57:28;98961.09;;;4.68;90.53
45369;BME280;51342;55.250;37.668;2023-10-31T01:00:01;98989.97;;;4.66;90.68
45369;BME280;51342;55.250;37.668;2023-10-31T01:02:32;98992.13;;;4.60;90.40
45369;BME280;51342;55.250;37.668;2023-10-31T01:05:04;98989.25;;;4.55;90.34
45369;BME280;51342;55.250;37.668;2023-10-31T01:07:35;98987.94;;;4.48;90.22
45369;BME280;51342;55.250;37.668;2023-10-31T01:10:07;99001.06;;;4.41;90.35
45369;BME280;51342;55.250;37.668;2023-10-31T01:12:38;98995.41;;;4.34;90.10
45369;BME280;51342;55.250;37.668;2023-10-31T01:15:10;99008.59;;;4.27;90.00
45369;BME280;51342;55.250;37.668;2023-10-31T01:17:41;98998.66;;;4.19;89.90
45369;BME280;51342;55.250;37.668;2023-10-31T01:20:13;99002.13;;;4.08;89.60
45369;BME280;51342;55.250;37.668;2023-10-31T01:22:44;99007.84;;;4.04;89.46
45369;BME280;51342;55.250;37.668;2023-10-31T01:25:16;99008.16;;;3.97;89.42
45369;BME280;51342;55.250;37.668;2023-10-31T01:27:47;99009.28;;;3.89;89.38
45369;BME280;51342;55.250;37.668;2023-10-31T01:30:19;99005.97;;;3.78;89.43
45369;BME280;51342;55.250;37.668;2023-10-31T01:32:51;99019.19;;;3.72;89.28
45369;BME280;51342;55.250;37.668;2023-10-31T01:35:22;99017.41;;;3.71;89.57
45369;BME280;51342;55.250;37.668;2023-10-31T01:37:53;99013.44;;;3.63;89.46
45369;BME280;51342;55.250;37.668;2023-10-31T01:40:25;99019.09;;;3.59;89.33
45369;BME280;51342;55.250;37.668;2023-10-31T01:42:57;99025.53;;;3.54;89.13
45369;BME280;51342;55.250;37.668;2023-10-31T01:45:28;99022.72;;;3.51;89.09
45369;BME280;51342;55.250;37.668;2023-10-31T01:47:59;99025.19;;;3.50;89.40
45369;BME280;51342;55.250;37.668;2023-10-31T01:50:31;99031.97;;;3.49;89.35
45369;BME280;51342;55.250;37.668;2023-10-31T01:53:02;99024.84;;;3.45;89.37
45369;BME280;51342;55.250;37.668;2023-10-31T01:55:34;99027.97;;;3.41;89.20
45369;BME280;51342;55.250;37.668;2023-10-31T01:58:06;99033.84;;;3.40;89.16
45369;BME280;51342;55.250;37.668;2023-10-31T02:00:40;99033.50;;;3.35;89.06
45369;BME280;51342;55.250;37.668;2023-10-31T02:03:14;99039.28;;;3.33;88.94
45369;BME280;51342;55.250;37.668;2023-10-31T02:05:46;99039.81;;;3.29;88.75
45369;BME280;51342;55.250;37.668;2023-10-31T02:08:17;99042.16;;;3.26;88.85
45369;BME280;51342;55.250;37.668;2023-10-31T02:10:49;99044.34;;;3.21;88.93
45369;BME280;51342;55.250;37.668;2023-10-31T02:13:29;99050.56;;;3.13;88.71
45369;BME280;51342;55.250;37.668;2023-10-31T02:16:01;99050.31;;;3.10;88.87
45369;BME280;51342;55.250;37.668;2023-10-31T02:18:33;99056.84;;;3.06;88.73
45369;BME280;51342;55.250;37.668;2023-10-31T02:21:04;99062.53;;;3.02;88.30
45369;BME280;51342;55.250;37.668;2023-10-31T02:23:36;99071.50;;;2.97;88.55
45369;BME280;51342;55.250;37.668;2023-10-31T02:26:07;99070.25;;;2.92;88.50
45369;BME280;51342;55.250;37.668;2023-10-31T02:28:39;99080.78;;;2.85;88.53
45369;BME280;51342;55.250;37.668;2023-10-31T02:31:11;99066.06;;;2.71;88.21
45369;BME280;51342;55.250;37.668;2023-10-31T02:33:43;99083.28;;;2.73;88.40
45369;BME280;51342;55.250;37.668;2023-10-31T02:36:14;99087.16;;;2.68;88.49
45369;BME280;51342;55.250;37.668;2023-10-31T02:38:46;99088.44;;;2.63;88.39
45369;BME280;51342;55.250;37.668;2023-10-31T02:41:18;99085.66;;;2.60;88.20
45369;BME280;51342;55.250;37.668;2023-10-31T02:43:50;99094.38;;;2.52;88.28
45369;BME280;51342;55.250;37.668;2023-10-31T02:46:21;99101.56;;;2.46;88.03
45369;BME280;51342;55.250;37.668;2023-10-31T02:48:53;99098.38;;;2.38;88.30
45369;BME280;51342;55.250;37.668;2023-10-31T02:51:24;99109.91;;;2.33;88.12
45369;BME280;51342;55.250;37.668;2023-10-31T02:53:56;99116.94;;;2.25;88.20
45369;BME280;51342;55.250;37.668;2023-10-31T02:56:27;99115.56;;;2.19;87.90
45369;BME280;51342;55.250;37.668;2023-10-31T02:58:59;99128.31;;;2.19;88.13
45369;BME280;51342;55.250;37.668;2023-10-31T03:01:30;99125.88;;;2.20;88.26
45369;BME280;51342;55.250;37.668;2023-10-31T03:04:02;99123.34;;;2.20;88.34
45369;BME280;51342;55.250;37.668;2023-10-31T03:06:33;99127.81;;;2.23;88.40
45369;BME280;51342;55.250;37.668;2023-10-31T03:09:06;99126.91;;;2.22;88.01
45369;BME280;51342;55.250;37.668;2023-10-31T03:11:38;99125.25;;;2.23;88.09
45369;BME280;51342;55.250;37.668;2023-10-31T03:14:09;99130.22;;;2.21;87.92
45369;BME280;51342;55.250;37.668;2023-10-31T03:16:41;99134.69;;;2.24;88.29
45369;BME280;51342;55.250;37.668;2023-10-31T03:19:12;99142.56;;;2.27;88.21
45369;BME280;51342;55.250;37.668;2023-10-31T03:21:43;99143.34;;;2.26;87.97
45369;BME280;51342;55.250;37.668;2023-10-31T03:24:15;99145.69;;;2.23;88.27
45369;BME280;51342;55.250;37.668;2023-10-31T03:26:46;99149.00;;;2.22;88.10
45369;BME280;51342;55.250;37.668;2023-10-31T03:29:18;99143.41;;;2.16;88.22
45369;BME280;51342;55.250;37.668;2023-10-31T03:31:50;99144.44;;;2.07;87.96
45369;BME280;51342;55.250;37.668;2023-10-31T03:34:22;99139.72;;;2.02;88.06
45369;BME280;51342;55.250;37.668;2023-10-31T03:36:53;99147.13;;;1.99;88.04
45369;BME280;51342;55.250;37.668;2023-10-31T03:39:24;99156.19;;;1.95;88.06
45369;BME280;51342;55.250;37.668;2023-10-31T03:41:56;99165.38;;;1.93;88.03
45369;BME280;51342;55.250;37.668;2023-10-31T03:44:29;99165.22;;;1.92;88.04
45369;BME280;51342;55.250;37.668;2023-10-31T03:47:00;99170.50;;;1.93;88.24
45369;BME280;51342;55.250;37.668;2023-10-31T03:49:32;99178.13;;;1.93;88.13
45369;BME280;51342;55.250;37.668;2023-10-31T03:52:03;99176.59;;;1.95;87.94
45369;BME280;51342;55.250;37.668;2023-10-31T03:54:35;99173.28;;;1.96;88.11
45369;BME280;51342;55.250;37.668;2023-10-31T03:57:06;99168.94;;;1.95;87.83
45369;BME280;51342;55.250;37.668;2023-10-31T03:59:37;99178.38;;;1.96;88.00
45369;BME280;51342;55.250;37.668;2023-10-31T04:02:10;99193.94;;;1.99;88.22
45369;BME280;51342;55.250;37.668;2023-10-31T04:04:41;99191.41;;;1.99;87.97
45369;BME280;51342;55.250;37.668;2023-10-31T04:07:13;99194.97;;;2.01;88.17
45369;BME280;51342;55.250;37.668;2023-10-31T04:09:44;99198.28;;;2.00;88.19
45369;BME280;51342;55.250;37.668;2023-10-31T04:12:16;99203.00;;;2.06;88.35
45369;BME280;51342;55.250;37.668;2023-10-31T04:14:48;99202.59;;;2.11;88.37
45369;BME280;51342;55.250;37.668;2023-10-31T04:17:19;99199.78;;;2.19;88.05
45369;BME280;51342;55.250;37.668;2023-10-31T04:19:50;99206.16;;;2.24;88.16
45369;BME280;51342;55.250;37.668;2023-10-31T04:22:22;99207.41;;;2.29;88.28
45369;BME280;51342;55.250;37.668;2023-10-31T04:24:53;99219.53;;;2.31;88.35
45369;BME280;51342;55.250;37.668;2023-10-31T04:27:25;99210.88;;;2.29;88.13
45369;BME280;51342;55.250;37.668;2023-10-31T04:29:56;99219.91;;;2.36;88.37
45369;BME280;51342;55.250;37.668;2023-10-31T04:32:27;99221.06;;;2.39;88.28
45369;BME280;51342;55.250;37.668;2023-10-31T04:34:59;99221.28;;;2.43;88.28
45369;BME280;51342;55.250;37.668;2023-10-31T04:37:30;99224.22;;;2.47;88.47
45369;BME280;51342;55.250;37.668;2023-10-31T04:40:02;99230.59;;;2.52;88.57
45369;BME280;51342;55.250;37.668;2023-10-31T04:42:33;99232.75;;;2.58;88.68
45369;BME280;51342;55.250;37.668;2023-10-31T04:45:05;99232.47;;;2.65;88.76
45369;BME280;51342;55.250;37.668;2023-10-31T04:47:37;99228.50;;;2.69;88.80
45369;BME280;51342;55.250;37.668;2023-10-31T04:50:08;99230.41;;;2.71;88.71
45369;BME280;51342;55.250;37.668;2023-10-31T04:52:40;99243.66;;;2.77;88.69
45369;BME280;51342;55.250;37.668;2023-10-31T04:55:11;99243.91;;;2.80;88.87
45369;BME280;51342;55.250;37.668;2023-10-31T04:57:42;99253.75;;;2.86;89.08
45369;BME280;51342;55.250;37.668;2023-10-31T05:00:14;99258.34;;;2.90;89.16
45369;BME280;51342;55.250;37.668;2023-10-31T05:02:46;99267.38;;;2.97;89.03
45369;BME280;51342;55.250;37.668;2023-10-31T05:05:17;99265.19;;;3.01;89.09
45369;BME280;51342;55.250;37.668;2023-10-31T05:07:49;99262.84;;;3.04;89.00
45369;BME280;51342;55.250;37.668;2023-10-31T05:10:20;99264.22;;;3.11;89.14
45369;BME280;51342;55.250;37.668;2023-10-31T05:12:51;99275.09;;;3.18;89.47
45369;BME280;51342;55.250;37.668;2023-10-31T05:15:23;99276.56;;;3.27;89.29
45369;BME280;51342;55.250;37.668;2023-10-31T05:17:55;99279.59;;;3.33;89.66
45369;BME280;51342;55.250;37.668;2023-10-31T05:20:26;99279.44;;;3.41;89.54
45369;BME280;51342;55.250;37.668;2023-10-31T05:22:58;99285.94;;;3.48;89.80
45369;BME280;51342;55.250;37.668;2023-10-31T05:25:29;99287.28;;;3.55;89.97
45369;BME280;51342;55.250;37.668;2023-10-31T05:28:01;99292.25;;;3.63;89.92
45369;BME280;51342;55.250;37.668;2023-10-31T05:30:32;99289.13;;;3.67;90.03
45369;BME280;51342;55.250;37.668;2023-10-31T05:33:03;99291.41;;;3.75;89.98
45369;BME280;51342;55.250;37.668;2023-10-31T05:35:35;99286.75;;;3.81;90.23
45369;BME280;51342;55.250;37.668;2023-10-31T05:38:06;99292.34;;;3.87;90.42
45369;BME280;51342;55.250;37.668;2023-10-31T05:40:38;99297.16;;;3.94;90.21
45369;BME280;51342;55.250;37.668;2023-10-31T05:43:09;99295.94;;;4.01;90.58
45369;BME280;51342;55.250;37.668;2023-10-31T05:45:40;99297.84;;;4.03;90.67
45369;BME280;51342;55.250;37.668;2023-10-31T05:48:12;99307.00;;;4.11;90.49
45369;BME280;51342;55.250;37.668;2023-10-31T05:50:45;99306.56;;;4.17;90.63
45369;BME280;51342;55.250;37.668;2023-10-31T05:53:17;99312.25;;;4.24;90.93
45369;BME280;51342;55.250;37.668;2023-10-31T05:55:48;99316.19;;;4.31;90.63
45369;BME280;51342;55.250;37.668;2023-10-31T05:58:20;99306.28;;;4.36;90.68
45369;BME280;51342;55.250;37.668;2023-10-31T06:00:51;99313.78;;;4.44;91.10
45369;BME280;51342;55.250;37.668;2023-10-31T06:03:23;99317.13;;;4.55;91.03
45369;BME280;51342;55.250;37.668;2023-10-31T06:05:54;99321.03;;;4.62;91.02
45369;BME280;51342;55.250;37.668;2023-10-31T06:08:25;99324.94;;;4.68;91.18
45369;BME280;51342;55.250;37.668;2023-10-31T06:11:00;99328.97;;;4.76;91.23
45369;BME280;51342;55.250;37.668;2023-10-31T06:13:31;99328.75;;;4.85;91.07
45369;BME280;51342;55.250;37.668;2023-10-31T06:16:03;99321.50;;;4.91;91.65
45369;BME280;51342;55.250;37.668;2023-10-31T06:18:34;99326.28;;;4.98;91.56
45369;BME280;51342;55.250;37.668;2023-10-31T06:21:06;99332.00;;;5.06;91.62
45369;BME280;51342;55.250;37.668;2023-10-31T06:23:39;99333.34;;;5.13;91.77
45369;BME280;51342;55.250;37.668;2023-10-31T06:26:11;99336.44;;;5.20;91.77
45369;BME280;51342;55.250;37.668;2023-10-31T06:28:42;99340.47;;;5.28;91.76
45369;BME280;51342;55.250;37.668;2023-10-31T06:31:14;99340.91;;;5.35;91.59
45369;BME280;51342;55.250;37.668;2023-10-31T06:33:45;99338.88;;;5.42;91.95
45369;BME280;51342;55.250;37.668;2023-10-31T06:36:17;99345.31;;;5.49;91.74
45369;BME280;51342;55.250;37.668;2023-10-31T06:38:48;99354.34;;;5.55;92.20
45369;BME280;51342;55.250;37.668;2023-10-31T06:41:19;99360.59;;;5.59;92.08
45369;BME280;51342;55.250;37.668;2023-10-31T06:43:51;99357.56;;;5.65;91.69
45369;BME280;51342;55.250;37.668;2023-10-31T06:46:22;99363.13;;;5.71;92.36
45369;BME280;51342;55.250;37.668;2023-10-31T06:48:54;99375.31;;;5.73;92.26
45369;BME280;51342;55.250;37.668;2023-10-31T06:51:25;99370.03;;;5.83;91.99
45369;BME280;51342;55.250;37.668;2023-10-31T06:53:57;99382.31;;;5.88;92.11
45369;BME280;51342;55.250;37.668;2023-10-31T06:56:28;99382.84;;;5.95;92.42
45369;BME280;51342;55.250;37.668;2023-10-31T06:58:59;99388.47;;;6.01;92.38
45369;BME280;51342;55.250;37.668;2023-10-31T07:01:31;99386.31;;;6.07;92.52
45369;BME280;51342;55.250;37.668;2023-10-31T07:04:02;99393.75;;;6.16;92.33
45369;BME280;51342;55.250;37.668;2023-10-31T07:06:34;99394.16;;;6.22;92.67
45369;BME280;51342;55.250;37.668;2023-10-31T07:09:05;99399.94;;;6.31;92.76
45369;BME280;51342;55.250;37.668;2023-10-31T07:11:37;99409.19;;;6.41;93.05
45369;BME280;51342;55.250;37.668;2023-10-31T07:14:08;99398.63;;;6.50;92.74
45369;BME280;51342;55.250;37.668;2023-10-31T07:16:40;99407.75;;;6.58;92.93
45369;BME280;51342;55.250;37.668;2023-10-31T07:19:11;99408.94;;;6.63;92.46
45369;BME280;51342;55.250;37.668;2023-10-31T07:21:43;99420.44;;;6.68;92.86
45369;BME280;51342;55.250;37.668;2023-10-31T07:24:14;99419.06;;;6.73;93.08
45369;BME280;51342;55.250;37.668;2023-10-31T07:26:45;99419.50;;;6.79;92.99
45369;BME280;51342;55.250;37.668;2023-10-31T07:29:17;99420.03;;;6.87;93.13
45369;BME280;51342;55.250;37.668;2023-10-31T07:31:48;99430.72;;;6.93;93.03
45369;BME280;51342;55.250;37.668;2023-10-31T07:34:19;99429.53;;;7.01;93.20
45369;BME280;51342;55.250;37.668;2023-10-31T07:36:51;99434.19;;;7.07;93.33
45369;BME280;51342;55.250;37.668;2023-10-31T07:39:22;99439.75;;;7.13;93.18
45369;BME280;51342;55.250;37.668;2023-10-31T07:41:54;99440.94;;;7.18;93.08
45369;BME280;51342;55.250;37.668;2023-10-31T07:44:25;99433.63;;;7.24;93.12
45369;BME280;51342;55.250;37.668;2023-10-31T07:46:57;99437.22;;;7.26;93.34
45369;BME280;51342;55.250;37.668;2023-10-31T07:49:28;99440.06;;;7.31;93.25
45369;BME280;51342;55.250;37.668;2023-10-31T07:51:59;99447.28;;;7.36;93.35
45369;BME280;51342;55.250;37.668;2023-10-31T07:54:31;99439.00;;;7.40;93.01
45369;BME280;51342;55.250;37.668;2023-10-31T07:57:02;99446.31;;;7.48;93.01
45369;BME280;51342;55.250;37.668;2023-10-31T07:59:34;99442.56;;;7.56;93.18
45369;BME280;51342;55.250;37.668;2023-10-31T08:02:05;99443.78;;;7.61;93.25
45369;BME280;51342;55.250;37.668;2023-10-31T08:04:37;99444.25;;;7.68;92.90
45369;BME280;51342;55.250;37.668;2023-10-31T08:07:09;99449.31;;;7.67;93.24
45369;BME280;51342;55.250;37.668;2023-10-31T08:09:40;99454.25;;;7.77;93.21
45369;BME280;51342;55.250;37.668;2023-10-31T08:12:11;99459.69;;;7.82;93.01
45369;BME280;51342;55.250;37.668;2023-10-31T08:14:43;99453.22;;;7.88;93.29
45369;BME280;51342;55.250;37.668;2023-10-31T08:17:14;99454.41;;;7.93;93.42
45369;BME280;51342;55.250;37.668;2023-10-31T08:19:46;99449.56;;;7.98;93.15
45369;BME280;51342;55.250;37.668;2023-10-31T08:22:18;99449.88;;;8.03;93.31
45369;BME280;51342;55.250;37.668;2023-10-31T08:24:50;99447.59;;;8.07;93.02
45369;BME280;51342;55.250;37.668;2023-10-31T08:27:21;99450.25;;;8.09;93.06
45369;BME280;51342;55.250;37.668;2023-10-31T08:29:53;99457.47;;;8.14;92.84
45369;BME280;51342;55.250;37.668;2023-10-31T08:32:24;99459.53;;;8.20;93.11
45369;BME280;51342;55.250;37.668;2023-10-31T08:34:55;99453.72;;;8.22;93.07
45369;BME280;51342;55.250;37.668;2023-10-31T08:37:28;99460.81;;;8.27;92.75
45369;BME280;51342;55.250;37.668;2023-10-31T08:40:00;99456.75;;;8.30;92.77
45369;BME280;51342;55.250;37.668;2023-10-31T08:42:34;99442.09;;;8.29;92.91
45369;BME280;51342;55.250;37.668;2023-10-31T08:45:06;99445.03;;;8.35;92.72
45369;BME280;51342;55.250;37.668;2023-10-31T08:47:37;99452.97;;;8.38;92.60
45369;BME280;51342;55.250;37.668;2023-10-31T08:50:09;99450.59;;;8.41;92.32
45369;BME280;51342;55.250;37.668;2023-10-31T08:52:40;99456.94;;;8.46;92.41
45369;BME280;51342;55.250;37.668;2023-10-31T08:55:12;99456.22;;;8.49;92.56
45369;BME280;51342;55.250;37.668;2023-10-31T08:57:43;99455.53;;;8.52;92.06
45369;BME280;51342;55.250;37.668;2023-10-31T09:00:15;99463.44;;;8.55;92.05
45369;BME280;51342;55.250;37.668;2023-10-31T09:02:46;99464.31;;;8.55;91.64
45369;BME280;51342;55.250;37.668;2023-10-31T09:05:18;99461.66;;;8.54;91.68
45369;BME280;51342;55.250;37.668;2023-10-31T09:07:50;99458.47;;;8.58;92.05
45369;BME280;51342;55.250;37.668;2023-10-31T09:10:21;99457.84;;;8.62;91.60
45369;BME280;51342;55.250;37.668;2023-10-31T09:12:52;99445.97;;;8.64;91.55
45369;BME280;51342;55.250;37.668;2023-10-31T09:15:24;99449.44;;;8.64;91.46
45369;BME280;51342;55.250;37.668;2023-10-31T09:17:55;99447.66;;;8.63;91.43
45369;BME280;51342;55.250;37.668;2023-10-31T09:20:28;99442.56;;;8.65;91.40
45369;BME280;51342;55.250;37.668;2023-10-31T09:23:00;99436.63;;;8.66;91.02
45369;BME280;51342;55.250;37.668;2023-10-31T09:25:32;99442.66;;;8.66;91.09
45369;BME280;51342;55.250;37.668;2023-10-31T09:28:03;99459.13;;;8.68;91.15
45369;BME280;51342;55.250;37.668;2023-10-31T09:30:35;99453.19;;;8.69;91.00
45369;BME280;51342;55.250;37.668;2023-10-31T09:33:06;99449.06;;;8.73;90.83
45369;BME280;51342;55.250;37.668;2023-10-31T09:35:38;99443.22;;;8.75;90.92
45369;BME280;51342;55.250;37.668;2023-10-31T09:38:09;99455.31;;;8.76;90.87
45369;BME280;51342;55.250;37.668;2023-10-31T09:40:41;99452.66;;;8.75;90.45
45369;BME280;51342;55.250;37.668;2023-10-31T09:43:12;99458.78;;;8.77;90.73
45369;BME280;51342;55.250;37.668;2023-10-31T09:45:44;99459.75;;;8.79;90.57
45369;BME280;51342;55.250;37.668;2023-10-31T09:48:17;99458.09;;;8.80;90.42
45369;BME280;51342;55.250;37.668;2023-10-31T09:50:49;99459.75;;;8.79;90.31
45369;BME280;51342;55.250;37.668;2023-10-31T09:53:21;99452.03;;;8.79;90.11
45369;BME280;51342;55.250;37.668;2023-10-31T09:55:53;99457.00;;;8.76;89.64
45369;BME280;51342;55.250;37.668;2023-10-31T09:58:25;99458.72;;;8.75;89.61
45369;BME280;51342;55.250;37.668;2023-10-31T10:00:56;99454.44;;;8.76;89.75
45369;BME280;51342;55.250;37.668;2023-10-31T10:03:29;99451.94;;;8.77;89.58
45369;BME280;51342;55.250;37.668;2023-10-31T10:06:02;99446.78;;;8.77;89.46
45369;BME280;51342;55.250;37.668;2023-10-31T10:08:37;99460.56;;;8.78;89.31
45369;BME280;51342;55.250;37.668;2023-10-31T10:11:09;99464.16;;;8.80;89.40
45369;BME280;51342;55.250;37.668;2023-10-31T10:13:41;99462.53;;;8.82;89.39
45369;BME280;51342;55.250;37.668;2023-10-31T10:16:27;99452.03;;;8.79;88.94
45369;BME280;51342;55.250;37.668;2023-10-31T10:19:20;99446.78;;;8.77;89.38
45369;BME280;51342;55.250;37.668;2023-10-31T10:21:55;99454.00;;;8.83;89.50
45369;BME280;51342;55.250;37.668;2023-10-31T10:24:27;99464.22;;;8.82;89.19
45369;BME280;51342;55.250;37.668;2023-10-31T10:26:59;99454.81;;;8.82;89.08
45369;BME280;51342;55.250;37.668;2023-10-31T10:29:30;99454.81;;;8.82;88.86
45369;BME280;51342;55.250;37.668;2023-10-31T10:32:05;99457.19;;;8.79;88.67
45369;BME280;51342;55.250;37.668;2023-10-31T10:34:37;99456.41;;;8.80;88.91
45369;BME280;51342;55.250;37.668;2023-10-31T10:37:08;99457.28;;;8.81;88.57
45369;BME280;51342;55.250;37.668;2023-10-31T10:39:41;99450.44;;;8.81;88.84
45369;BME280;51342;55.250;37.668;2023-10-31T10:42:17;99444.47;;;8.82;88.25
45369;BME280;51342;55.250;37.668;2023-10-31T10:44:49;99443.69;;;8.83;88.29
45369;BME280;51342;55.250;37.668;2023-10-31T10:47:23;99445.38;;;8.83;88.41
45369;BME280;51342;55.250;37.668;2023-10-31T10:49:59;99446.25;;;8.83;88.38
45369;BME280;51342;55.250;37.668;2023-10-31T10:53:07;99438.06;;;8.75;88.50
45369;BME280;51342;55.250;37.668;2023-10-31T10:55:45;99440.03;;;8.80;88.59
45369;BME280;51342;55.250;37.668;2023-10-31T11:01:04;99445.00;;;8.76;88.17
45369;BME280;51342;55.250;37.668;2023-10-31T11:03:37;99452.94;;;8.80;88.18
45369;BME280;51342;55.250;37.668;2023-10-31T11:06:09;99445.09;;;8.78;88.20
45369;BME280;51342;55.250;37.668;2023-10-31T11:08:41;99447.88;;;8.81;88.25
45369;BME280;51342;55.250;37.668;2023-10-31T11:11:14;99446.19;;;8.82;88.23
45369;BME280;51342;55.250;37.668;2023-10-31T11:14:05;99445.19;;;8.80;88.38
45369;BME280;51342;55.250;37.668;2023-10-31T11:16:47;99438.88;;;8.74;88.10
45369;BME280;51342;55.250;37.668;2023-10-31T11:19:21;99444.13;;;8.76;87.86
45369;BME280;51342;55.250;37.668;2023-10-31T11:21:58;99448.47;;;8.77;88.29
45369;BME280;51342;55.250;37.668;2023-10-31T11:24:33;99440.66;;;8.75;88.08
45369;BME280;51342;55.250;37.668;2023-10-31T11:27:06;99441.63;;;8.77;88.21
45369;BME280;51342;55.250;37.668;2023-10-31T11:29:37;99440.81;;;8.79;88.05
45369;BME280;51342;55.250;37.668;2023-10-31T11:32:10;99435.78;;;8.80;88.00
45369;BME280;51342;55.250;37.668;2023-10-31T11:34:42;99428.19;;;8.83;87.97
45369;BME280;51342;55.250;37.668;2023-10-31T11:37:25;99425.47;;;8.80;87.83
45369;BME280;51342;55.250;37.668;2023-10-31T11:42:50;99424.16;;;8.73;87.74
45369;BME280;51342;55.250;37.668;2023-10-31T11:45:30;99417.16;;;8.71;87.97
45369;BME280;51342;55.250;37.668;2023-10-31T11:48:03;99422.59;;;8.75;87.78
45369;BME280;51342;55.250;37.668;2023-10-31T11:50:36;99412.28;;;8.75;87.88
45369;BME280;51342;55.250;37.668;2023-10-31T11:53:10;99412.00;;;8.71;87.75
45369;BME280;51342;55.250;37.668;2023-10-31T11:55:46;99411.72;;;8.66;88.12
45369;BME280;51342;55.250;37.668;2023-10-31T11:58:22;99411.53;;;8.63;88.00
45369;BME280;51342;55.250;37.668;2023-10-31T12:01:02;99409.78;;;8.62;88.00
45369;BME280;51342;55.250;37.668;2023-10-31T12:03:40;99411.44;;;8.62;87.86
45369;BME280;51342;55.250;37.668;2023-10-31T12:06:11;99422.25;;;8.41;88.20
45369;BME280;51342;55.250;37.668;2023-10-31T12:08:43;99421.59;;;8.59;88.50
45369;BME280;51342;55.250;37.668;2023-10-31T12:11:20;99408.84;;;8.62;88.17
45369;BME280;51342;55.250;37.668;2023-10-31T12:13:59;99414.81;;;8.61;88.06
45369;BME280;51342;55.250;37.668;2023-10-31T12:16:33;99421.06;;;8.64;88.28
45369;BME280;51342;55.250;37.668;2023-10-31T12:19:05;99418.75;;;8.69;88.10
45369;BME280;51342;55.250;37.668;2023-10-31T12:21:45;99417.59;;;8.64;87.85
45369;BME280;51342;55.250;37.668;2023-10-31T12:24:18;99425.41;;;8.65;87.78
45369;BME280;51342;55.250;37.668;2023-10-31T12:26:50;99420.34;;;8.67;87.97
45369;BME280;51342;55.250;37.668;2023-10-31T12:29:22;99419.56;;;8.68;88.22
45369;BME280;51342;55.250;37.668;2023-10-31T12:31:54;99417.97;;;8.70;87.91
45369;BME280;51342;55.250;37.668;2023-10-31T12:34:26;99417.97;;;8.70;87.79
45369;BME280;51342;55.250;37.668;2023-10-31T12:36:57;99417.97;;;8.70;87.82
45369;BME280;51342;55.250;37.668;2023-10-31T12:39:32;99419.72;;;8.71;87.99
45369;BME280;51342;55.250;37.668;2023-10-31T12:42:19;99424.53;;;8.65;87.65
45369;BME280;51342;55.250;37.668;2023-10-31T12:44:51;99423.03;;;8.68;87.93
45369;BME280;51342;55.250;37.668;2023-10-31T12:47:23;99427.31;;;8.68;87.91
45369;BME280;51342;55.250;37.668;2023-10-31T12:50:13;99427.09;;;8.65;87.87
45369;BME280;51342;55.250;37.668;2023-10-31T12:52:52;99423.72;;;8.66;88.15
45369;BME280;51342;55.250;37.668;2023-10-31T12:55:26;99429.09;;;8.69;88.17
45369;BME280;51342;55.250;37.668;2023-10-31T12:57:58;99426.50;;;8.69;88.22
45369;BME280;51342;55.250;37.668;2023-10-31T13:00:31;99422.22;;;8.69;87.69
45369;BME280;51342;55.250;37.668;2023-10-31T13:03:05;99416.88;;;8.66;87.62
45369;BME280;51342;55.250;37.668;2023-10-31T13:05:37;99422.91;;;8.67;88.10
45369;BME280;51342;55.250;37.668;2023-10-31T13:08:15;99421.94;;;8.65;87.95
45369;BME280;51342;55.250;37.668;2023-10-31T13:10:46;99422.84;;;8.65;88.33
45369;BME280;51342;55.250;37.668;2023-10-31T13:13:18;99418.41;;;8.63;88.14
45369;BME280;51342;55.250;37.668;2023-10-31T13:15:49;99418.28;;;8.61;88.26
45369;BME280;51342;55.250;37.668;2023-10-31T13:18:21;99426.66;;;8.57;88.44
45369;BME280;51342;55.250;37.668;2023-10-31T13:20:53;99429.31;;;8.59;88.45
45369;BME280;51342;55.250;37.668;2023-10-31T13:23:24;99425.03;;;8.59;88.53
45369;BME280;51342;55.250;37.668;2023-10-31T13:25:56;99426.75;;;8.59;88.53
45369;BME280;51342;55.250;37.668;2023-10-31T13:28:28;99418.91;;;8.57;88.30
45369;BME280;51342;55.250;37.668;2023-10-31T13:31:01;99418.03;;;8.57;88.55
45369;BME280;51342;55.250;37.668;2023-10-31T13:33:40;99422.38;;;8.58;88.75